createdAt,value
2019-01-03T00:00:01.785Z,949.72
2019-01-03T00:01:00.252Z,949.67
2019-01-03T00:02:00.241Z,949.72
2019-01-03T00:03:00.268Z,949.65
2019-01-03T00:04:00.211Z,949.71
2019-01-03T00:05:00.287Z,949.72
2019-01-03T00:06:00.192Z,949.73
2019-01-03T00:07:00.433Z,949.75
2019-01-03T00:08:00.232Z,949.74
2019-01-03T00:09:00.916Z,949.72
2019-01-03T00:10:00.275Z,949.75
2019-01-03T00:11:00.314Z,949.73
2019-01-03T00:12:00.131Z,949.74
2019-01-03T00:13:00.233Z,949.77
2019-01-03T00:14:00.129Z,949.74
2019-01-03T00:15:00.195Z,949.81
2019-01-03T00:16:00.082Z,949.75
2019-01-03T00:17:00.073Z,949.79
2019-01-03T00:18:00.098Z,949.76
2019-01-03T00:19:00.365Z,949.78
2019-01-03T00:20:00.223Z,949.78
2019-01-03T00:21:00.032Z,949.80
2019-01-03T00:22:00.038Z,949.81
2019-01-03T00:23:00.007Z,949.79
2019-01-03T00:24:00.076Z,949.84
2019-01-03T00:24:59.998Z,949.81
2019-01-03T00:25:59.975Z,949.81
2019-01-03T00:26:59.976Z,949.84
2019-01-03T00:27:59.950Z,949.84
2019-01-03T00:28:59.954Z,949.86
2019-01-03T00:29:59.938Z,949.85
2019-01-03T00:30:59.923Z,949.88
2019-01-03T00:31:59.913Z,949.88
2019-01-03T00:32:59.896Z,949.90
2019-01-03T00:33:59.956Z,949.90
2019-01-03T00:34:59.873Z,949.92
2019-01-03T00:35:59.861Z,949.96
2019-01-03T00:36:59.912Z,950.01
2019-01-03T00:37:59.842Z,950.00
2019-01-03T00:38:59.853Z,950.03
2019-01-03T00:39:59.817Z,950.02
2019-01-03T00:40:59.836Z,950.06
2019-01-03T00:41:59.802Z,950.08
2019-01-03T00:42:59.797Z,950.10
2019-01-03T00:43:59.823Z,950.09
2019-01-03T00:44:59.765Z,950.08
2019-01-03T00:45:59.751Z,950.10
2019-01-03T00:46:59.742Z,950.11
2019-01-03T00:47:59.729Z,950.15
2019-01-03T00:48:59.726Z,950.17
2019-01-03T00:49:59.726Z,950.17
2019-01-03T00:50:59.734Z,950.18
2019-01-03T00:51:59.691Z,950.17
2019-01-03T00:52:59.718Z,950.21
2019-01-03T00:53:59.669Z,950.20
2019-01-03T00:54:59.700Z,950.20
2019-01-03T00:55:59.654Z,950.19
2019-01-03T00:56:59.631Z,950.22
2019-01-03T00:57:59.619Z,950.26
2019-01-03T00:58:59.618Z,950.30
2019-01-03T00:59:59.615Z,950.27
2019-01-03T01:00:59.599Z,950.28
2019-01-03T01:01:59.580Z,950.33
2019-01-03T01:02:59.567Z,950.32
2019-01-03T01:03:59.553Z,950.33
2019-01-03T01:04:59.561Z,950.34
2019-01-03T01:05:59.561Z,950.36
2019-01-03T01:06:59.535Z,950.37
2019-01-03T01:07:59.534Z,950.41
2019-01-03T01:08:59.507Z,950.41
2019-01-03T01:09:59.507Z,950.39
2019-01-03T01:10:59.477Z,950.41
2019-01-03T01:11:59.464Z,950.44
2019-01-03T01:12:59.493Z,950.44
2019-01-03T01:13:59.467Z,950.40
2019-01-03T01:14:59.476Z,950.40
2019-01-03T01:15:59.432Z,950.40
2019-01-03T01:16:59.412Z,950.48
2019-01-03T01:17:59.403Z,950.45
2019-01-03T01:18:59.410Z,950.47
2019-01-03T01:19:59.379Z,950.49
2019-01-03T01:20:59.388Z,950.49
2019-01-03T01:21:59.358Z,950.48
2019-01-03T01:22:59.384Z,950.50
2019-01-03T01:23:59.341Z,950.53
2019-01-03T01:24:59.338Z,950.54
2019-01-03T01:25:59.346Z,950.55
2019-01-03T01:26:59.329Z,950.51
2019-01-03T01:27:59.289Z,950.51
2019-01-03T01:28:59.280Z,950.50
2019-01-03T01:29:59.279Z,950.54
2019-01-03T01:30:59.288Z,950.55
2019-01-03T01:31:59.255Z,950.52
2019-01-03T01:32:59.240Z,950.52
2019-01-03T01:33:59.223Z,950.57
2019-01-03T01:34:59.219Z,950.55
2019-01-03T01:35:59.320Z,950.55
2019-01-03T01:36:59.191Z,950.55
2019-01-03T01:37:59.194Z,950.57
2019-01-03T01:38:59.168Z,950.57
2019-01-03T01:39:59.156Z,950.61
2019-01-03T01:40:59.163Z,950.61
2019-01-03T01:41:59.154Z,950.57
2019-01-03T01:42:59.126Z,950.64
2019-01-03T01:43:59.132Z,950.61
2019-01-03T01:44:59.103Z,950.57
2019-01-03T01:45:59.111Z,950.59
2019-01-03T01:46:59.117Z,950.62
2019-01-03T01:47:59.113Z,950.67
2019-01-03T01:48:59.058Z,950.71
2019-01-03T01:49:59.057Z,950.71
2019-01-03T01:50:59.059Z,950.73
2019-01-03T01:51:59.031Z,950.71
2019-01-03T01:52:59.014Z,950.72
2019-01-03T01:53:59.005Z,950.75
2019-01-03T01:54:59.000Z,950.69
2019-01-03T01:55:59.042Z,950.66
2019-01-03T01:56:58.984Z,950.72
2019-01-03T01:57:58.966Z,950.69
2019-01-03T01:58:58.961Z,950.70
2019-01-03T01:59:58.939Z,950.71
2019-01-03T02:00:58.926Z,950.71
2019-01-03T02:01:58.976Z,950.70
2019-01-03T02:02:58.905Z,950.67
2019-01-03T02:03:58.935Z,950.71
2019-01-03T02:04:58.891Z,950.66
2019-01-03T02:05:58.873Z,950.62
2019-01-03T02:06:58.876Z,950.63
2019-01-03T02:07:58.858Z,950.64
2019-01-03T02:08:58.838Z,950.61
2019-01-03T02:09:58.833Z,950.60
2019-01-03T02:10:58.840Z,950.60
2019-01-03T02:11:58.832Z,950.61
2019-01-03T02:12:58.795Z,950.62
2019-01-03T02:13:58.798Z,950.59
2019-01-03T02:14:58.783Z,950.58
2019-01-03T02:15:58.762Z,950.62
2019-01-03T02:16:58.810Z,950.60
2019-01-03T02:17:58.739Z,950.61
2019-01-03T02:18:58.729Z,950.60
2019-01-03T02:19:58.726Z,950.65
2019-01-03T02:20:58.716Z,950.65
2019-01-03T02:21:58.714Z,950.61
2019-01-03T02:22:58.697Z,950.60
2019-01-03T02:23:58.679Z,950.66
2019-01-03T02:24:58.661Z,950.64
2019-01-03T02:25:58.661Z,950.67
2019-01-03T02:26:58.668Z,950.66
2019-01-03T02:27:58.635Z,950.62
2019-01-03T02:28:58.620Z,950.63
2019-01-03T02:29:58.613Z,950.55
2019-01-03T02:30:58.596Z,950.60
2019-01-03T02:31:58.619Z,950.59
2019-01-03T02:32:58.580Z,950.61
2019-01-03T02:33:58.573Z,950.57
2019-01-03T02:34:58.553Z,950.57
2019-01-03T02:35:58.542Z,950.62
2019-01-03T02:36:58.546Z,950.59
2019-01-03T02:37:58.534Z,950.59
2019-01-03T02:38:58.511Z,950.59
2019-01-03T02:39:58.511Z,950.54
2019-01-03T02:40:59.407Z,950.56
2019-01-03T02:41:58.493Z,950.57
2019-01-03T02:42:58.481Z,950.58
2019-01-03T02:43:58.484Z,950.58
2019-01-03T02:44:58.449Z,950.57
2019-01-03T02:45:58.432Z,950.58
2019-01-03T02:46:58.454Z,950.60
2019-01-03T02:47:58.411Z,950.55
2019-01-03T02:48:58.419Z,950.56
2019-01-03T02:49:58.411Z,950.52
2019-01-03T02:50:58.394Z,950.53
2019-01-03T02:51:58.366Z,950.52
2019-01-03T02:52:58.372Z,950.51
2019-01-03T02:53:58.348Z,950.53
2019-01-03T02:54:58.342Z,950.49
2019-01-03T02:55:58.333Z,950.52
2019-01-03T02:56:58.314Z,950.51
2019-01-03T02:57:58.325Z,950.49
2019-01-03T02:58:58.301Z,950.47
2019-01-03T02:59:58.279Z,950.50
2019-01-03T03:00:58.266Z,950.47
2019-01-03T03:01:58.269Z,950.42
2019-01-03T03:02:58.266Z,950.42
2019-01-03T03:03:58.233Z,950.43
2019-01-03T03:04:58.232Z,950.39
2019-01-03T03:05:58.216Z,950.43
2019-01-03T03:06:58.207Z,950.51
2019-01-03T03:07:58.224Z,950.42
2019-01-03T03:08:58.198Z,950.41
2019-01-03T03:09:58.166Z,950.44
2019-01-03T03:10:58.155Z,950.48
2019-01-03T03:11:58.157Z,950.48
2019-01-03T03:12:58.155Z,950.48
2019-01-03T03:13:58.134Z,950.51
2019-01-03T03:14:58.111Z,950.53
2019-01-03T03:15:58.100Z,950.51
2019-01-03T03:16:58.088Z,950.50
2019-01-03T03:17:58.097Z,950.51
2019-01-03T03:18:58.081Z,950.53
2019-01-03T03:19:58.079Z,950.49
2019-01-03T03:20:58.048Z,950.51
2019-01-03T03:21:58.032Z,950.51
2019-01-03T03:22:58.042Z,950.53
2019-01-03T03:23:58.018Z,950.56
2019-01-03T03:24:58.004Z,950.62
2019-01-03T03:25:58.013Z,950.56
2019-01-03T03:26:57.984Z,950.56
2019-01-03T03:27:57.981Z,950.56
2019-01-03T03:28:57.964Z,950.60
2019-01-03T03:29:57.949Z,950.57
2019-01-03T03:30:57.939Z,950.57
2019-01-03T03:31:57.944Z,950.53
2019-01-03T03:32:57.962Z,950.51
2019-01-03T03:33:57.899Z,950.53
2019-01-03T03:34:57.887Z,950.53
2019-01-03T03:35:57.883Z,950.50
2019-01-03T03:36:57.868Z,950.52
2019-01-03T03:37:57.885Z,950.50
2019-01-03T03:38:57.861Z,950.50
2019-01-03T03:39:57.844Z,950.48
2019-01-03T03:40:57.826Z,950.51
2019-01-03T03:41:57.809Z,950.48
2019-01-03T03:42:57.805Z,950.45
2019-01-03T03:43:57.811Z,950.45
2019-01-03T03:44:57.788Z,950.44
2019-01-03T03:45:57.767Z,950.49
2019-01-03T03:46:57.754Z,950.47
2019-01-03T03:47:57.747Z,950.42
2019-01-03T03:48:57.754Z,950.49
2019-01-03T03:49:57.724Z,950.47
2019-01-03T03:50:57.726Z,950.48
2019-01-03T03:51:57.705Z,950.48
2019-01-03T03:52:57.692Z,950.48
2019-01-03T03:53:57.705Z,950.47
2019-01-03T03:54:57.675Z,950.50
2019-01-03T03:55:57.658Z,950.47
2019-01-03T03:56:57.641Z,950.48
2019-01-03T03:57:57.648Z,950.50
2019-01-03T03:58:57.652Z,950.47
2019-01-03T03:59:57.616Z,950.50
2019-01-03T04:00:57.599Z,950.49
2019-01-03T04:01:57.589Z,950.49
2019-01-03T04:02:57.574Z,950.53
2019-01-03T04:03:57.613Z,950.50
2019-01-03T04:04:57.566Z,950.57
2019-01-03T04:05:57.548Z,950.56
2019-01-03T04:06:57.542Z,950.54
2019-01-03T04:07:57.525Z,950.55
2019-01-03T04:08:57.536Z,950.57
2019-01-03T04:09:57.512Z,950.59
2019-01-03T04:10:57.493Z,950.59
2019-01-03T04:11:57.487Z,950.55
2019-01-03T04:12:57.464Z,950.59
2019-01-03T04:13:57.527Z,950.58
2019-01-03T04:14:57.452Z,950.55
2019-01-03T04:15:57.455Z,950.53
2019-01-03T04:16:57.427Z,950.57
2019-01-03T04:17:57.419Z,950.54
2019-01-03T04:18:57.403Z,950.53
2019-01-03T04:19:57.421Z,950.51
2019-01-03T04:20:57.388Z,950.51
2019-01-03T04:21:57.375Z,950.54
2019-01-03T04:22:57.362Z,950.51
2019-01-03T04:23:57.339Z,950.50
2019-01-03T04:24:57.353Z,950.50
2019-01-03T04:25:57.339Z,950.47
2019-01-03T04:26:57.310Z,950.47
2019-01-03T04:27:57.312Z,950.46
2019-01-03T04:28:57.311Z,950.42
2019-01-03T04:29:57.309Z,950.44
2019-01-03T04:30:57.268Z,950.50
2019-01-03T04:31:57.256Z,950.43
2019-01-03T04:32:57.274Z,950.43
2019-01-03T04:33:57.242Z,950.42
2019-01-03T04:34:57.242Z,950.38
2019-01-03T04:35:57.217Z,950.37
2019-01-03T04:36:57.204Z,950.37
2019-01-03T04:37:57.183Z,950.40
2019-01-03T04:38:57.178Z,950.47
2019-01-03T04:39:57.191Z,950.43
2019-01-03T04:40:57.154Z,950.45
2019-01-03T04:41:57.138Z,950.44
2019-01-03T04:42:57.131Z,950.41
2019-01-03T04:43:57.122Z,950.36
2019-01-03T04:44:57.309Z,950.36
2019-01-03T04:45:57.112Z,950.39
2019-01-03T04:46:57.144Z,950.38
2019-01-03T04:47:57.081Z,950.36
2019-01-03T04:48:57.077Z,950.30
2019-01-03T04:49:57.064Z,950.30
2019-01-03T04:50:57.063Z,950.33
2019-01-03T04:51:57.086Z,950.28
2019-01-03T04:52:57.022Z,950.28
2019-01-03T04:53:57.030Z,950.31
2019-01-03T04:54:56.997Z,950.36
2019-01-03T04:55:57.010Z,950.26
2019-01-03T04:56:56.972Z,950.33
2019-01-03T04:57:56.975Z,950.23
2019-01-03T04:58:56.962Z,950.22
2019-01-03T04:59:56.940Z,950.30
2019-01-03T05:00:56.950Z,950.26
2019-01-03T05:01:56.924Z,950.16
2019-01-03T05:02:56.911Z,950.24
2019-01-03T05:03:56.912Z,950.26
2019-01-03T05:04:56.929Z,950.26
2019-01-03T05:05:56.899Z,950.22
2019-01-03T05:06:56.878Z,950.29
2019-01-03T05:07:57.554Z,950.25
2019-01-03T05:08:56.851Z,950.28
2019-01-03T05:09:56.832Z,950.29
2019-01-03T05:10:56.825Z,950.31
2019-01-03T05:11:56.836Z,950.32
2019-01-03T05:12:56.813Z,950.31
2019-01-03T05:13:56.792Z,950.31
2019-01-03T05:14:56.783Z,950.35
2019-01-03T05:15:56.798Z,950.31
2019-01-03T05:16:56.781Z,950.33
2019-01-03T05:17:56.814Z,950.34
2019-01-03T05:18:56.740Z,950.33
2019-01-03T05:19:56.713Z,950.36
2019-01-03T05:20:56.704Z,950.36
2019-01-03T05:21:56.710Z,950.35
2019-01-03T05:22:56.713Z,950.34
2019-01-03T05:23:57.521Z,950.35
2019-01-03T05:24:56.670Z,950.36
2019-01-03T05:25:56.653Z,950.36
2019-01-03T05:26:56.693Z,950.33
2019-01-03T05:27:56.631Z,950.35
2019-01-03T05:28:56.675Z,950.41
2019-01-03T05:29:56.603Z,950.39
2019-01-03T05:30:56.593Z,950.46
2019-01-03T05:31:56.653Z,950.50
2019-01-03T05:32:56.568Z,950.48
2019-01-03T05:33:56.560Z,950.49
2019-01-03T05:34:56.566Z,950.51
2019-01-03T05:35:56.554Z,950.51
2019-01-03T05:36:56.593Z,950.52
2019-01-03T05:37:56.530Z,950.55
2019-01-03T05:38:56.531Z,950.49
2019-01-03T05:39:56.500Z,950.52
2019-01-03T05:40:56.480Z,950.48
2019-01-03T05:41:56.489Z,950.50
2019-01-03T05:42:56.465Z,950.49
2019-01-03T05:43:56.473Z,950.52
2019-01-03T05:44:56.435Z,950.49
2019-01-03T05:45:56.421Z,950.56
2019-01-03T05:46:56.484Z,950.59
2019-01-03T05:47:56.399Z,950.62
2019-01-03T05:48:56.416Z,950.62
2019-01-03T05:49:56.408Z,950.61
2019-01-03T05:50:56.367Z,950.63
2019-01-03T05:51:56.355Z,950.66
2019-01-03T05:52:56.365Z,950.68
2019-01-03T05:53:56.337Z,950.69
2019-01-03T05:54:56.342Z,950.68
2019-01-03T05:55:56.315Z,950.69
2019-01-03T05:56:56.310Z,950.75
2019-01-03T05:57:56.309Z,950.72
2019-01-03T05:58:56.277Z,950.68
2019-01-03T05:59:56.275Z,950.70
2019-01-03T06:00:56.255Z,950.66
2019-01-03T06:01:56.244Z,950.71
2019-01-03T06:02:56.258Z,950.71
2019-01-03T06:03:56.231Z,950.71
2019-01-03T06:04:56.217Z,950.73
2019-01-03T06:05:56.202Z,950.78
2019-01-03T06:06:56.196Z,950.77
2019-01-03T06:07:56.194Z,950.77
2019-01-03T06:08:56.164Z,950.78
2019-01-03T06:09:56.165Z,950.80
2019-01-03T06:10:56.149Z,950.82
2019-01-03T06:11:56.136Z,950.81
2019-01-03T06:12:56.148Z,950.89
2019-01-03T06:13:56.111Z,950.89
2019-01-03T06:14:56.100Z,950.87
2019-01-03T06:15:56.105Z,950.88
2019-01-03T06:16:56.081Z,950.89
2019-01-03T06:17:56.079Z,950.95
2019-01-03T06:18:56.053Z,950.95
2019-01-03T06:19:56.040Z,951.01
2019-01-03T06:20:56.031Z,951.02
2019-01-03T06:21:56.035Z,951.02
2019-01-03T06:22:56.032Z,951.01
2019-01-03T06:23:55.996Z,951.08
2019-01-03T06:24:55.996Z,951.08
2019-01-03T06:25:55.974Z,951.07
2019-01-03T06:26:55.966Z,951.09
2019-01-03T06:27:55.976Z,951.09
2019-01-03T06:28:55.963Z,951.06
2019-01-03T06:29:55.933Z,951.07
2019-01-03T06:30:55.920Z,951.02
2019-01-03T06:31:55.908Z,951.03
2019-01-03T06:32:55.927Z,951.05
2019-01-03T06:33:55.887Z,951.09
2019-01-03T06:34:55.901Z,951.14
2019-01-03T06:35:55.867Z,951.11
2019-01-03T06:36:55.855Z,951.12
2019-01-03T06:37:55.842Z,951.09
2019-01-03T06:38:55.849Z,951.09
2019-01-03T06:39:55.825Z,951.10
2019-01-03T06:40:55.828Z,951.11
2019-01-03T06:41:55.803Z,951.09
2019-01-03T06:42:55.786Z,951.11
2019-01-03T06:43:55.805Z,951.06
2019-01-03T06:44:55.775Z,951.07
2019-01-03T06:45:55.754Z,951.10
2019-01-03T06:46:55.775Z,951.11
2019-01-03T06:47:55.739Z,951.14
2019-01-03T06:48:55.744Z,951.17
2019-01-03T06:49:55.718Z,951.17
2019-01-03T06:50:55.699Z,951.20
2019-01-03T06:51:55.707Z,951.19
2019-01-03T06:52:55.684Z,951.17
2019-01-03T06:53:55.705Z,951.18
2019-01-03T06:54:55.654Z,951.21
2019-01-03T06:55:55.644Z,951.23
2019-01-03T06:56:55.634Z,951.23
2019-01-03T06:57:55.635Z,951.29
2019-01-03T06:58:55.651Z,951.26
2019-01-03T06:59:55.600Z,951.32
2019-01-03T07:00:55.590Z,951.37
2019-01-03T07:01:55.579Z,951.35
2019-01-03T07:02:55.578Z,951.34
2019-01-03T07:03:55.853Z,951.35
2019-01-03T07:04:55.567Z,951.39
2019-01-03T07:05:55.536Z,951.40
2019-01-03T07:06:55.525Z,951.40
2019-01-03T07:07:55.518Z,951.42
2019-01-03T07:08:55.510Z,951.42
2019-01-03T07:09:55.517Z,951.40
2019-01-03T07:10:55.491Z,951.46
2019-01-03T07:11:55.469Z,951.43
2019-01-03T07:12:55.468Z,951.42
2019-01-03T07:13:55.463Z,951.48
2019-01-03T07:14:55.459Z,951.47
2019-01-03T07:15:55.427Z,951.49
2019-01-03T07:16:55.427Z,951.52
2019-01-03T07:17:55.403Z,951.52
2019-01-03T07:18:55.400Z,951.51
2019-01-03T07:19:55.406Z,951.48
2019-01-03T07:20:55.388Z,951.50
2019-01-03T07:21:55.362Z,951.46
2019-01-03T07:22:55.358Z,951.46
2019-01-03T07:23:55.338Z,951.44
2019-01-03T07:24:55.359Z,951.41
2019-01-03T07:25:55.317Z,951.45
2019-01-03T07:26:55.317Z,951.47
2019-01-03T07:27:55.296Z,951.49
2019-01-03T07:28:55.294Z,951.46
2019-01-03T07:29:55.298Z,951.49
2019-01-03T07:30:55.264Z,951.50
2019-01-03T07:31:55.252Z,951.45
2019-01-03T07:32:55.253Z,951.47
2019-01-03T07:33:55.230Z,951.45
2019-01-03T07:34:55.235Z,951.49
2019-01-03T07:35:55.232Z,951.55
2019-01-03T07:36:55.201Z,951.51
2019-01-03T07:37:55.191Z,951.51
2019-01-03T07:38:55.187Z,951.55
2019-01-03T07:39:55.169Z,951.54
2019-01-03T07:40:55.198Z,951.53
2019-01-03T07:41:55.141Z,951.52
2019-01-03T07:42:55.137Z,951.46
2019-01-03T07:43:55.128Z,951.50
2019-01-03T07:44:55.110Z,951.47
2019-01-03T07:45:55.118Z,951.50
2019-01-03T07:46:55.106Z,951.50
2019-01-03T07:47:55.079Z,951.52
2019-01-03T07:48:55.068Z,951.50
2019-01-03T07:49:55.055Z,951.50
2019-01-03T07:50:55.074Z,951.50
2019-01-03T07:51:55.041Z,951.50
2019-01-03T07:52:55.038Z,951.48
2019-01-03T07:53:55.021Z,951.46
2019-01-03T07:54:54.999Z,951.52
2019-01-03T07:55:55.004Z,951.49
2019-01-03T07:56:55.001Z,951.51
2019-01-03T07:57:54.974Z,951.53
2019-01-03T07:58:54.980Z,951.52
2019-01-03T07:59:54.947Z,951.52
2019-01-03T08:00:54.954Z,951.51
2019-01-03T08:01:54.941Z,951.55
2019-01-03T08:02:54.914Z,951.59
2019-01-03T08:03:54.917Z,951.51
2019-01-03T08:04:54.909Z,951.55
2019-01-03T08:05:54.907Z,951.56
2019-01-03T08:06:54.875Z,951.54
2019-01-03T08:07:54.880Z,951.57
2019-01-03T08:08:55.016Z,951.56
2019-01-03T08:09:54.837Z,951.57
2019-01-03T08:10:54.869Z,951.58
2019-01-03T08:11:54.820Z,951.59
2019-01-03T08:12:54.810Z,951.58
2019-01-03T08:13:54.795Z,951.57
2019-01-03T08:14:54.788Z,951.58
2019-01-03T08:15:54.786Z,951.58
2019-01-03T08:16:54.772Z,951.57
2019-01-03T08:17:54.764Z,951.57
2019-01-03T08:18:54.749Z,951.56
2019-01-03T08:19:54.729Z,951.61
2019-01-03T08:20:54.765Z,951.63
2019-01-03T08:21:54.713Z,951.67
2019-01-03T08:22:54.711Z,951.65
2019-01-03T08:23:54.689Z,951.67
2019-01-03T08:24:54.688Z,951.63
2019-01-03T08:25:54.664Z,951.60
2019-01-03T08:26:54.669Z,951.62
2019-01-03T08:27:54.642Z,951.65
2019-01-03T08:28:54.642Z,951.63
2019-01-03T08:29:54.620Z,951.67
2019-01-03T08:30:54.625Z,951.70
2019-01-03T08:31:54.625Z,951.70
2019-01-03T08:32:54.592Z,951.77
2019-01-03T08:33:54.585Z,951.70
2019-01-03T08:34:54.569Z,951.73
2019-01-03T08:35:54.560Z,951.71
2019-01-03T08:36:54.569Z,951.66
2019-01-03T08:37:54.529Z,951.68
2019-01-03T08:38:54.518Z,951.69
2019-01-03T08:39:54.515Z,951.65
2019-01-03T08:40:54.513Z,951.69
2019-01-03T08:41:54.506Z,951.63
2019-01-03T08:42:54.502Z,951.64
2019-01-03T08:43:54.469Z,951.55
2019-01-03T08:44:54.458Z,951.61
2019-01-03T08:45:54.443Z,951.59
2019-01-03T08:46:54.456Z,951.58
2019-01-03T08:47:54.432Z,951.60
2019-01-03T08:49:00.368Z,951.57
2019-01-03T08:49:55.399Z,951.58
2019-01-03T08:50:54.387Z,951.58
2019-01-03T08:51:54.396Z,951.62
2019-01-03T08:52:54.374Z,951.62
2019-01-03T08:53:54.363Z,951.57
2019-01-03T08:54:54.339Z,951.52
2019-01-03T08:55:54.329Z,951.52
2019-01-03T08:56:54.343Z,951.59
2019-01-03T08:57:54.309Z,951.62
2019-01-03T08:58:54.307Z,951.62
2019-01-03T08:59:54.298Z,951.62
2019-01-03T09:00:54.279Z,951.63
2019-01-03T09:01:54.297Z,951.69
2019-01-03T09:02:54.252Z,951.68
2019-01-03T09:03:54.247Z,951.79
2019-01-03T09:04:54.244Z,951.76
2019-01-03T09:05:54.218Z,951.74
2019-01-03T09:06:54.210Z,951.74
2019-01-03T09:07:54.215Z,951.73
2019-01-03T09:08:54.185Z,951.74
2019-01-03T09:09:54.194Z,951.75
2019-01-03T09:10:54.179Z,951.79
2019-01-03T09:11:54.153Z,951.80
2019-01-03T09:12:54.156Z,951.79
2019-01-03T09:13:54.131Z,951.77
2019-01-03T09:14:54.118Z,951.73
2019-01-03T09:15:54.108Z,951.71
2019-01-03T09:16:54.113Z,951.74
2019-01-03T09:17:54.117Z,951.78
2019-01-03T09:18:54.078Z,951.77
2019-01-03T09:19:54.063Z,951.82
2019-01-03T09:20:54.056Z,951.81
2019-01-03T09:21:54.049Z,951.78
2019-01-03T09:22:54.055Z,951.79
2019-01-03T09:23:54.022Z,951.74
2019-01-03T09:24:54.020Z,951.80
2019-01-03T09:25:53.998Z,951.80
2019-01-03T09:26:53.999Z,951.81
2019-01-03T09:27:54.013Z,951.76
2019-01-03T09:28:53.979Z,951.74
2019-01-03T09:29:53.971Z,951.87
2019-01-03T09:30:53.942Z,951.81
2019-01-03T09:31:53.933Z,951.81
2019-01-03T09:32:53.921Z,951.82
2019-01-03T09:33:53.926Z,951.84
2019-01-03T09:34:53.903Z,951.78
2019-01-03T09:35:53.951Z,951.80
2019-01-03T09:36:53.883Z,951.79
2019-01-03T09:37:53.865Z,951.80
2019-01-03T09:38:53.936Z,951.83
2019-01-03T09:39:53.866Z,951.78
2019-01-03T09:40:53.832Z,951.75
2019-01-03T09:41:53.827Z,951.78
2019-01-03T09:42:53.813Z,951.77
2019-01-03T09:43:53.826Z,951.77
2019-01-03T09:44:53.789Z,951.76
2019-01-03T09:45:54.946Z,951.73
2019-01-03T09:46:53.767Z,951.74
2019-01-03T09:47:53.768Z,951.70
2019-01-03T09:48:53.768Z,951.72
2019-01-03T09:49:53.737Z,951.73
2019-01-03T09:50:53.727Z,951.73
2019-01-03T09:51:53.725Z,951.75
2019-01-03T09:52:53.709Z,951.71
2019-01-03T09:53:53.723Z,951.76
2019-01-03T09:54:53.693Z,951.76
2019-01-03T09:55:54.323Z,951.79
2019-01-03T09:56:53.666Z,951.67
2019-01-03T09:57:53.645Z,951.71
2019-01-03T09:58:54.455Z,951.68
2019-01-03T09:59:53.629Z,951.70
2019-01-03T10:00:53.658Z,951.63
2019-01-03T10:01:53.616Z,951.68
2019-01-03T10:02:53.593Z,951.66
2019-01-03T10:03:54.401Z,951.71
2019-01-03T10:04:53.577Z,951.75
2019-01-03T10:05:53.581Z,951.71
2019-01-03T10:06:53.559Z,951.68
2019-01-03T10:07:53.540Z,951.75
2019-01-03T10:08:53.527Z,951.66
2019-01-03T10:09:55.964Z,951.68
2019-01-03T10:10:53.512Z,951.64
2019-01-03T10:11:53.510Z,951.67
2019-01-03T10:12:53.493Z,951.65
2019-01-03T10:13:53.473Z,951.66
2019-01-03T10:14:53.481Z,951.69
2019-01-03T10:15:53.451Z,951.68
2019-01-03T10:16:53.441Z,951.61
2019-01-03T10:17:53.431Z,951.60
2019-01-03T10:18:53.430Z,951.61
2019-01-03T10:19:53.426Z,951.56
2019-01-03T10:20:53.405Z,951.52
2019-01-03T10:21:53.387Z,951.49
2019-01-03T10:22:53.376Z,951.43
2019-01-03T10:23:53.716Z,951.39
2019-01-03T10:24:53.387Z,951.45
2019-01-03T10:25:53.398Z,951.40
2019-01-03T10:26:54.215Z,951.40
2019-01-03T10:27:53.716Z,951.39
2019-01-03T10:28:53.315Z,951.42
2019-01-03T10:29:53.326Z,951.40
2019-01-03T10:30:53.296Z,951.43
2019-01-03T10:31:53.295Z,951.46
2019-01-03T10:32:53.267Z,951.40
2019-01-03T10:33:53.268Z,951.35
2019-01-03T10:34:53.301Z,951.48
2019-01-03T10:35:53.259Z,951.38
2019-01-03T10:36:53.241Z,951.38
2019-01-03T10:37:53.233Z,951.38
2019-01-03T10:38:53.204Z,951.37
2019-01-03T10:39:53.212Z,951.39
2019-01-03T10:40:53.251Z,951.39
2019-01-03T10:41:53.186Z,951.37
2019-01-03T10:42:53.165Z,951.34
2019-01-03T10:43:53.172Z,951.33
2019-01-03T10:44:53.141Z,951.34
2019-01-03T10:45:53.142Z,951.34
2019-01-03T10:46:54.058Z,951.32
2019-01-03T10:47:53.101Z,951.31
2019-01-03T10:48:53.091Z,951.32
2019-01-03T10:49:53.085Z,951.29
2019-01-03T10:50:53.103Z,951.27
2019-01-03T10:51:53.060Z,951.24
2019-01-03T10:52:53.054Z,951.29
2019-01-03T10:53:53.060Z,951.27
2019-01-03T10:54:53.045Z,951.26
2019-01-03T10:55:53.033Z,951.29
2019-01-03T10:56:55.547Z,951.27
2019-01-03T10:57:52.989Z,951.27
2019-01-03T10:58:53.006Z,951.22
2019-01-03T10:59:52.968Z,951.27
2019-01-03T11:00:52.985Z,951.21
2019-01-03T11:01:53.061Z,951.22
2019-01-03T11:02:52.934Z,951.27
2019-01-03T11:03:52.995Z,951.16
2019-01-03T11:04:52.934Z,951.17
2019-01-03T11:05:52.903Z,951.14
2019-01-03T11:06:52.915Z,951.11
2019-01-03T11:07:52.887Z,951.10
2019-01-03T11:08:52.876Z,951.08
2019-01-03T11:09:52.989Z,951.09
2019-01-03T11:10:52.851Z,951.06
2019-01-03T11:11:52.854Z,951.03
2019-01-03T11:12:52.853Z,951.01
2019-01-03T11:13:53.097Z,951.02
2019-01-03T11:14:52.814Z,951.04
2019-01-03T11:15:52.805Z,951.04
2019-01-03T11:16:52.797Z,951.04
2019-01-03T11:17:52.778Z,951.02
2019-01-03T11:18:52.771Z,951.01
2019-01-03T11:19:52.754Z,950.97
2019-01-03T11:20:52.743Z,951.01
2019-01-03T11:21:52.746Z,950.98
2019-01-03T11:22:52.739Z,951.00
2019-01-03T11:23:52.704Z,951.00
2019-01-03T11:24:52.694Z,950.95
2019-01-03T11:25:52.697Z,950.93
2019-01-03T11:26:52.690Z,950.92
2019-01-03T11:27:52.668Z,950.85
2019-01-03T11:28:52.650Z,950.86
2019-01-03T11:29:52.647Z,950.83
2019-01-03T11:30:52.629Z,950.80
2019-01-03T11:31:52.657Z,950.77
2019-01-03T11:32:52.823Z,950.77
2019-01-03T11:33:52.595Z,950.77
2019-01-03T11:34:52.583Z,950.77
2019-01-03T11:35:52.654Z,950.76
2019-01-03T11:36:52.766Z,950.81
2019-01-03T11:37:52.557Z,950.83
2019-01-03T11:38:52.556Z,950.81
2019-01-03T11:39:52.532Z,950.81
2019-01-03T11:40:52.520Z,950.82
2019-01-03T11:41:52.913Z,950.83
2019-01-03T11:42:52.507Z,950.82
2019-01-03T11:43:52.488Z,950.73
2019-01-03T11:44:54.248Z,950.76
2019-01-03T11:45:53.713Z,950.75
2019-01-03T11:46:53.935Z,950.70
2019-01-03T11:47:52.450Z,950.67
2019-01-03T11:48:52.436Z,950.64
2019-01-03T11:49:52.422Z,950.70
2019-01-03T11:50:52.677Z,950.70
2019-01-03T11:51:52.574Z,950.72
2019-01-03T11:52:53.795Z,950.73
2019-01-03T11:53:52.458Z,950.64
2019-01-03T11:54:52.368Z,950.68
2019-01-03T11:55:52.356Z,950.62
2019-01-03T11:56:52.359Z,950.63
2019-01-03T11:57:52.360Z,950.62
2019-01-03T11:58:52.334Z,950.58
2019-01-03T11:59:52.334Z,950.56
2019-01-03T12:00:52.310Z,950.54
2019-01-03T12:01:52.294Z,950.52
2019-01-03T12:02:52.301Z,950.50
2019-01-03T12:03:52.269Z,950.50
2019-01-03T12:04:52.267Z,950.46
2019-01-03T12:05:52.318Z,950.43
2019-01-03T12:06:52.246Z,950.44
2019-01-03T12:07:52.240Z,950.43
2019-01-03T12:08:52.215Z,950.39
2019-01-03T12:09:52.205Z,950.41
2019-01-03T12:10:52.198Z,950.42
2019-01-03T12:11:52.192Z,950.39
2019-01-03T12:12:52.195Z,950.39
2019-01-03T12:13:52.159Z,950.39
2019-01-03T12:14:52.201Z,950.39
2019-01-03T12:15:52.213Z,950.39
2019-01-03T12:16:52.142Z,950.36
2019-01-03T12:17:52.141Z,950.35
2019-01-03T12:18:52.117Z,950.35
2019-01-03T12:19:52.095Z,950.34
2019-01-03T12:20:52.192Z,950.35
2019-01-03T12:21:52.081Z,950.33
2019-01-03T12:22:52.084Z,950.34
2019-01-03T12:23:52.062Z,950.27
2019-01-03T12:24:52.044Z,950.27
2019-01-03T12:25:52.030Z,950.27
2019-01-03T12:26:52.033Z,950.26
2019-01-03T12:27:52.028Z,950.23